Time;durP1;ratioP1;P1;durP2;ratioP2;P2;SDS_P1;SDS_P2;PMS_P1;PMS_P2;Temp;Humidity;BMP_temperature;BMP_pressure;BME280_temperature;BME280_humidity;BME280_pressure;Samples;Min_cycle;Max_cycle;Signal;HPM_P1;HPM_P2
2022/06/05 00:01:21;;;;;;;7.22;4.93;;;;;;;22.38;74.69;100034.50;4484508;32;33474;-59
2022/06/05 00:04:10;;;;;;;41.78;26.42;;;;;;;22.38;74.75;100045.06;4472439;32;32259;-59
2022/06/05 00:07:15;;;;;;;31.60;17.85;;;;;;;21.52;78.57;100036.94;4483325;32;32657;-59
2022/06/05 00:10:04;;;;;;;50.10;28.90;;;;;;;21.45;79.38;100035.16;4478248;32;34798;-59
2022/06/05 00:12:38;;;;;;;26.73;17.17;;;;;;;21.41;80.80;100042.12;4471081;32;32323;-59
2022/06/05 00:15:06;;;;;;;18.17;11.68;;;;;;;20.93;83.02;100043.63;4480270;32;34484;-59
2022/06/05 00:17:34;;;;;;;8.70;5.47;;;;;;;21.47;80.00;100036.03;4484623;32;34592;-59
2022/06/05 00:20:05;;;;;;;12.00;7.62;;;;;;;22.18;76.25;100027.44;4469433;32;34527;-59
2022/06/05 00:22:33;;;;;;;9.88;7.22;;;;;;;21.20;82.12;100029.72;4484415;32;33297;-59
2022/06/05 00:25:01;;;;;;;10.13;6.62;;;;;;;21.66;79.77;100016.78;4484344;32;34625;-59
2022/06/05 00:27:31;;;;;;;10.25;7.05;;;;;;;20.75;85.43;100034.72;4484106;32;33992;-59
2022/06/05 00:30:08;;;;;;;10.20;7.75;;;;;;;20.49;87.29;100037.13;4470267;32;33188;-59
2022/06/05 00:32:43;;;;;;;10.85;7.35;;;;;;;20.49;87.58;100039.75;4471044;32;33538;-59
2022/06/05 00:35:15;;;;;;;16.08;11.27;;;;;;;20.66;86.06;100033.78;4469912;32;33943;-59
2022/06/05 00:38:04;;;;;;;11.68;7.62;;;;;;;21.59;80.59;100025.53;4484864;32;33327;-59
2022/06/05 00:40:44;;;;;;;48.65;31.23;;;;;;;22.08;77.05;100020.41;4484728;32;34010;-59
2022/06/05 00:43:15;;;;;;;14.95;9.65;;;;;;;21.37;80.25;100014.88;4484451;32;34194;-59
2022/06/05 00:45:44;;;;;;;11.93;7.60;;;;;;;20.70;85.57;100014.50;4471159;32;34066;-59
2022/06/05 00:48:12;;;;;;;15.90;10.57;;;;;;;20.43;87.32;100006.37;4472923;32;34697;-59
2022/06/05 00:50:41;;;;;;;12.13;8.07;;;;;;;21.60;80.69;100003.59;4458671;32;33468;-59
2022/06/05 00:53:10;;;;;;;17.60;14.10;;;;;;;21.82;78.51;100011.56;4472719;32;32966;-59
2022/06/05 00:55:41;;;;;;;20.45;14.55;;;;;;;22.02;77.42;100009.84;4484636;32;34036;-59
2022/06/05 00:58:09;;;;;;;19.23;15.95;;;;;;;22.05;77.98;100004.56;4485463;32;35182;-59
2022/06/05 01:00:39;;;;;;;22.40;17.45;;;;;;;22.22;76.59;100008.97;4482687;32;34667;-59
2022/06/05 01:03:09;;;;;;;27.92;20.58;;;;;;;22.55;74.66;100006.34;4461265;32;33825;-59
2022/06/05 01:05:38;;;;;;;13.02;10.25;;;;;;;21.49;79.74;99998.25;4467682;32;34015;-59
2022/06/05 01:08:06;;;;;;;15.55;10.63;;;;;;;21.78;78.86;99989.56;4485312;32;33997;-59
2022/06/05 01:10:36;;;;;;;12.63;9.35;;;;;;;22.40;75.45;99990.53;4473101;32;33836;-59
2022/06/05 01:13:17;;;;;;;12.95;9.55;;;;;;;22.21;76.03;99994.00;4485193;32;33481;-59
2022/06/05 01:15:54;;;;;;;12.88;8.50;;;;;;;22.65;73.59;99987.88;4483900;32;33676;-59
2022/06/05 01:18:40;;;;;;;12.95;9.50;;;;;;;22.44;73.66;99987.00;4470911;32;34485;-59
2022/06/05 01:21:08;;;;;;;12.68;8.13;;;;;;;21.38;79.66;99990.31;4479885;32;34679;-59
2022/06/05 01:24:13;;;;;;;14.32;7.90;;;;;;;21.04;81.89;99989.25;4485510;32;33222;-59
2022/06/05 01:26:47;;;;;;;;;;;;;;;20.80;83.52;99990.91;4467891;32;32389;-59
2022/06/05 01:29:29;;;;;;;13.25;8.38;;;;;;;20.74;84.41;100000.50;4473771;32;34872;-59
2022/06/05 01:32:06;;;;;;;12.37;8.95;;;;;;;20.80;83.87;99995.25;4481396;32;33883;-59
2022/06/05 01:34:37;;;;;;;12.15;8.70;;;;;;;20.87;83.10;99991.81;4472365;32;33436;-59
2022/06/05 01:37:16;;;;;;;13.25;8.30;;;;;;;21.49;79.66;99997.41;4479081;32;33019;-59
2022/06/05 01:40:00;;;;;;;13.93;9.00;;;;;;;20.93;82.56;99986.56;4474481;32;34731;-59
2022/06/05 01:42:38;;;;;;;11.23;8.07;;;;;;;21.00;82.60;99991.00;4471287;32;32955;-59
2022/06/05 01:45:19;;;;;;;11.50;8.60;;;;;;;21.10;81.26;100005.09;4470318;32;33289;-59
2022/06/05 01:47:51;;;;;;;10.23;8.15;;;;;;;21.06;81.18;100007.72;4459775;32;32291;-59
2022/06/05 01:50:39;;;;;;;12.73;9.15;;;;;;;20.95;81.65;99997.12;4464977;32;33932;-59
2022/06/05 01:53:12;;;;;;;12.18;9.05;;;;;;;20.81;83.24;99992.63;4480290;32;34185;-59
2022/06/05 01:56:04;;;;;;;11.23;8.70;;;;;;;21.21;80.25;99987.59;4478381;32;34133;-59
2022/06/05 01:58:42;;;;;;;11.15;9.32;;;;;;;21.13;81.10;99981.41;4482369;32;33374;-59
2022/06/05 02:01:14;;;;;;;10.85;8.68;;;;;;;20.78;82.97;99997.91;4470984;32;34245;-59
2022/06/05 02:03:55;;;;;;;13.20;9.70;;;;;;;21.24;80.84;99989.34;4464877;26;34665;-85
2022/06/05 02:06:29;;;;;;;14.05;9.30;;;;;;;21.23;81.21;99990.25;4451804;32;33342;-85
2022/06/05 02:09:14;;;;;;;11.63;8.80;;;;;;;21.66;78.80;99986.91;4441803;32;32839;-85
2022/06/05 02:11:42;;;;;;;13.18;8.55;;;;;;;22.52;73.65;99994.91;4450180;32;34683;-85
2022/06/05 02:14:10;;;;;;;9.88;7.85;;;;;;;22.14;75.02;99994.00;4466611;32;33993;-85
2022/06/05 02:16:39;;;;;;;11.95;7.75;;;;;;;22.24;74.93;100002.81;4469036;32;33857;-86
2022/06/05 02:19:12;;;;;;;10.02;7.25;;;;;;;22.18;74.75;100003.69;4453103;32;32702;-87
2022/06/05 02:21:40;;;;;;;12.23;8.27;;;;;;;22.27;74.26;99991.41;4449690;32;33840;-88
2022/06/05 02:24:10;;;;;;;11.55;8.60;;;;;;;22.56;73.07;99994.94;4452693;32;33762;-88
2022/06/05 02:26:38;;;;;;;11.20;8.35;;;;;;;22.71;72.30;99995.78;4467184;32;32968;-87
2022/06/05 02:29:15;;;;;;;11.95;8.38;;;;;;;22.57;72.21;100003.72;4466737;32;33835;-89
2022/06/05 02:32:15;;;;;;;11.32;8.20;;;;;;;22.02;74.64;99998.38;4454729;32;33796;-87
2022/06/05 02:35:25;;;;;;;9.87;8.07;;;;;;;22.05;74.67;99999.28;4466027;32;33944;-89
2022/06/05 02:38:27;;;;;;;10.18;7.65;;;;;;;22.88;71.27;99983.41;4447331;32;34224;-87
2022/06/05 02:41:09;;;;;;;10.40;7.22;;;;;;;22.89;70.94;99974.62;4469138;32;33650;-88
2022/06/05 02:47:16;;;;;;;11.73;7.90;;;;;;;22.30;72.45;99983.50;4465398;32;32741;-88
2022/06/05 02:49:49;;;;;;;9.43;7.45;;;;;;;21.87;74.70;99988.72;4453974;32;33414;-89
2022/06/05 02:52:17;;;;;;;10.52;7.90;;;;;;;22.24;73.24;99994.03;4456196;32;33610;-90
2022/06/05 02:55:12;;;;;;;10.55;8.10;;;;;;;22.11;73.86;99994.00;4455886;32;34569;-87
2022/06/05 02:57:41;;;;;;;11.10;8.18;;;;;;;22.28;73.32;99986.13;4470179;32;33661;-88
2022/06/05 03:00:15;;;;;;;13.35;8.98;;;;;;;22.28;73.34;99993.19;4455198;32;34165;-86
2022/06/05 03:05:29;;;;;;;14.00;7.97;;;;;;;21.49;77.47;99992.13;4467238;32;33790;-88
2022/06/05 03:07:57;;;;;;;13.23;9.00;;;;;;;21.62;77.92;99993.94;4469755;32;34495;-88
2022/06/05 03:10:24;;;;;;;10.18;8.38;;;;;;;21.32;78.61;99989.38;4469649;32;33335;-88
2022/06/05 03:12:52;;;;;;;12.77;9.02;;;;;;;21.19;79.95;99999.88;4469311;32;34014;-89
2022/06/05 03:15:20;;;;;;;12.52;8.38;;;;;;;21.19;79.22;99997.25;4469106;32;33934;-87
2022/06/05 03:17:47;;;;;;;10.75;8.35;;;;;;;21.70;76.56;99994.81;4469557;32;33803;-87
2022/06/05 03:20:16;;;;;;;10.90;8.23;;;;;;;21.86;75.42;99989.56;4468184;32;33565;-89
2022/06/05 03:22:44;;;;;;;13.00;8.45;;;;;;;21.94;74.77;100001.00;4456667;32;34486;-89
2022/06/05 03:25:17;;;;;;;13.57;9.88;;;;;;;21.71;75.91;99996.59;4466653;32;34805;-89
2022/06/05 03:27:45;;;;;;;12.83;9.83;;;;;;;21.08;79.71;99995.44;4470241;32;33573;-87
2022/06/05 03:30:14;;;;;;;12.57;9.60;;;;;;;20.85;80.94;100004.06;4469894;32;34141;-88
2022/06/05 03:32:42;;;;;;;14.35;9.40;;;;;;;21.08;80.80;100006.84;4456080;32;34580;-86
2022/06/05 03:35:11;;;;;;;11.05;8.85;;;;;;;21.44;78.28;100004.38;4466080;32;33667;-89
2022/06/05 03:37:38;;;;;;;12.48;9.23;;;;;;;20.80;81.26;100018.94;4452692;32;34668;-90
2022/06/05 03:40:11;;;;;;;10.55;9.40;;;;;;;20.76;81.61;100028.56;4455072;32;34252;-88
2022/06/05 03:42:39;;;;;;;14.68;10.07;;;;;;;20.53;83.02;100033.66;4455430;32;34718;-89
2022/06/05 03:45:12;;;;;;;13.62;9.75;;;;;;;20.54;82.92;100029.28;4469829;32;34255;-87
2022/06/05 03:47:41;;;;;;;14.18;9.98;;;;;;;20.14;85.10;100035.06;4466719;32;33817;-87
2022/06/05 03:50:10;;;;;;;14.15;9.65;;;;;;;20.41;84.14;100039.69;4454110;32;32545;-90
2022/06/05 03:52:38;;;;;;;14.52;10.75;;;;;;;20.18;85.76;100051.75;4455507;32;34109;-87
2022/06/05 03:55:07;;;;;;;13.38;9.80;;;;;;;20.66;83.51;100054.84;4468076;32;33644;-89
2022/06/05 03:57:34;;;;;;;13.50;10.07;;;;;;;20.78;82.51;100060.19;4454122;32;33522;-87
2022/06/05 04:00:04;;;;;;;12.30;10.25;;;;;;;20.46;84.34;100058.16;4465178;32;33422;-88
2022/06/05 04:02:38;;;;;;;15.43;10.35;;;;;;;20.72;82.93;100058.38;4440943;32;33608;-87
2022/06/05 04:05:08;;;;;;;16.80;12.95;;;;;;;20.59;84.42;100064.37;4454664;32;34606;-89
2022/06/05 04:07:35;;;;;;;15.50;11.60;;;;;;;20.79;83.33;100067.22;4466131;32;33573;-88
2022/06/05 04:10:04;;;;;;;13.73;10.93;;;;;;;20.78;83.68;100065.44;4453647;32;33511;-90
2022/06/05 04:12:31;;;;;;;13.32;10.63;;;;;;;20.54;85.27;100066.12;4454698;32;33324;-88
2022/06/05 04:15:00;;;;;;;14.18;10.75;;;;;;;20.48;85.93;100072.22;4469303;32;33519;-88
2022/06/05 04:17:27;;;;;;;13.50;10.18;;;;;;;21.17;82.72;100080.66;4467396;32;34648;-89
2022/06/05 04:19:55;;;;;;;13.45;10.70;;;;;;;21.60;79.91;100075.63;4465693;32;33496;-88
2022/06/05 04:22:23;;;;;;;11.52;9.20;;;;;;;21.97;78.23;100080.16;4468805;32;32412;-90
2022/06/05 04:24:50;;;;;;;13.70;10.15;;;;;;;21.90;78.33;100067.81;4452201;32;34682;-89
2022/06/05 04:27:18;;;;;;;13.60;10.95;;;;;;;21.82;79.46;100069.56;4464889;32;33741;-89
2022/06/05 04:29:46;;;;;;;13.75;10.48;;;;;;;21.46;81.06;100073.78;4450638;32;33539;-87
2022/06/05 04:32:13;;;;;;;12.05;9.18;;;;;;;22.15;78.43;100090.72;4466490;32;34257;-87
2022/06/05 04:34:41;;;;;;;16.65;11.32;;;;;;;22.39;77.06;100089.06;4468059;32;34598;-87
2022/06/05 04:37:09;;;;;;;13.20;10.32;;;;;;;22.49;76.14;100090.84;4466632;32;34178;-88
2022/06/05 04:39:36;;;;;;;15.63;11.63;;;;;;;22.75;75.04;100097.87;4449120;32;32882;-87
2022/06/05 04:42:21;;;;;;;17.73;13.02;;;;;;;22.60;75.25;100087.31;4466026;32;34221;-89
2022/06/05 04:44:49;;;;;;;16.40;12.27;;;;;;;22.56;75.17;100079.41;4464924;32;34691;-88
2022/06/05 04:47:16;;;;;;;17.12;13.52;;;;;;;22.95;74.09;100088.19;4460921;32;33402;-88
2022/06/05 04:49:44;;;;;;;16.60;13.38;;;;;;;22.57;75.40;100089.06;4456468;32;34021;-89
2022/06/05 04:52:12;;;;;;;17.40;14.05;;;;;;;22.75;75.11;100089.94;4457356;32;33497;-88
2022/06/05 04:54:39;;;;;;;16.27;13.77;;;;;;;22.27;76.96;100095.22;4467209;32;33609;-87
2022/06/05 04:57:07;;;;;;;19.25;13.85;;;;;;;22.52;75.66;100105.78;4440885;32;33922;-91
2022/06/05 04:59:35;;;;;;;18.60;13.90;;;;;;;22.36;76.41;100104.87;4459938;32;32768;-87
2022/06/05 05:02:02;;;;;;;21.27;14.35;;;;;;;22.65;75.21;100101.41;4459583;32;34319;-88
2022/06/05 05:04:30;;;;;;;20.27;15.02;;;;;;;22.26;76.82;100108.41;4459229;32;33046;-87
2022/06/05 05:06:58;;;;;;;19.87;14.65;;;;;;;22.48;76.26;100114.59;4435518;32;34480;-88
2022/06/05 05:09:25;;;;;;;18.40;13.32;;;;;;;22.72;75.12;100113.75;4435025;32;34179;-90
2022/06/05 05:11:53;;;;;;;19.85;14.80;;;;;;;22.71;75.04;100117.25;4466351;32;34048;-90
2022/06/05 05:14:21;;;;;;;20.10;14.80;;;;;;;23.03;74.12;100125.19;4453863;32;33819;-88
2022/06/05 05:16:48;;;;;;;19.23;14.55;;;;;;;22.76;75.46;100137.50;4468391;32;34145;-88
2022/06/05 05:19:16;;;;;;;21.75;14.70;;;;;;;22.76;74.80;100142.78;4446125;32;33422;-90
2022/06/05 05:21:44;;;;;;;23.65;14.85;;;;;;;22.58;75.22;100141.00;4441203;32;32991;-90
2022/06/05 05:24:11;;;;;;;21.83;14.10;;;;;;;22.57;75.50;100146.28;4455575;32;33776;-88
2022/06/05 05:26:39;;;;;;;20.55;13.77;;;;;;;22.58;74.99;100159.50;4467600;32;33919;-89
2022/06/05 05:29:06;;;;;;;20.80;14.40;;;;;;;22.60;74.61;100161.22;4454601;32;32516;-89
2022/06/05 05:31:37;;;;;;;18.12;13.43;;;;;;;22.61;73.80;100158.59;4465590;32;33614;-89
2022/06/05 05:34:06;;;;;;;18.62;13.00;;;;;;;23.14;71.93;100162.16;4454340;32;33760;-87
2022/06/05 05:36:35;;;;;;;19.23;11.68;;;;;;;23.20;71.41;100156.91;4448392;32;34583;-87
2022/06/05 05:42:07;;;;;;;15.27;10.65;;;;;;;23.14;71.71;100164.81;4453663;32;34356;-89
2022/06/05 05:44:40;;;;;;;17.40;10.85;;;;;;;23.34;70.60;100157.75;4453852;32;34694;-91
2022/06/05 05:47:20;;;;;;;16.95;11.05;;;;;;;23.53;69.85;100163.00;4467786;32;33429;-88
2022/06/05 05:49:56;;;;;;;12.98;10.05;;;;;;;23.21;70.85;100153.34;4462569;32;33373;-89
2022/06/05 05:52:25;;;;;;;13.70;9.98;;;;;;;23.44;69.82;100147.16;4449918;32;33942;-86
2022/06/05 05:54:53;;;;;;;13.25;9.48;;;;;;;23.22;70.36;100149.84;4454383;32;33618;-88
2022/06/05 05:57:20;;;;;;;12.68;9.75;;;;;;;23.47;69.70;100152.41;4465524;32;33949;-89
2022/06/05 05:59:48;;;;;;;15.02;9.77;;;;;;;23.32;70.28;100156.00;4466336;32;33117;-88
2022/06/05 06:02:21;;;;;;;13.10;9.10;;;;;;;23.53;69.22;100152.44;4463900;32;32458;-88
2022/06/05 06:04:51;;;;;;;14.25;9.73;;;;;;;23.32;69.90;100143.66;4442693;32;35391;-88
2022/06/05 06:07:19;;;;;;;12.88;9.25;;;;;;;23.42;69.54;100149.78;4471921;32;34943;-87
2022/06/05 06:09:47;;;;;;;11.90;8.60;;;;;;;23.63;68.85;100148.87;4446748;32;33541;-87
2022/06/05 06:12:25;;;;;;;12.43;8.57;;;;;;;23.51;68.84;100152.44;4453397;32;33989;-86
2022/06/05 06:14:53;;;;;;;13.95;8.80;;;;;;;23.14;69.68;100146.31;4449823;32;34564;-87
2022/06/05 06:17:21;;;;;;;13.50;9.15;;;;;;;23.35;68.97;100148.94;4466945;32;33091;-87
2022/06/05 06:19:49;;;;;;;12.88;7.82;;;;;;;23.43;69.05;100145.37;4438630;32;32561;-87
2022/06/05 06:22:18;;;;;;;11.85;7.62;;;;;;;23.33;69.42;100137.50;4467871;32;34440;-87
2022/06/05 06:24:46;;;;;;;9.77;7.37;;;;;;;23.57;68.54;100133.03;4464841;32;34034;-86
2022/06/05 06:27:14;;;;;;;9.77;6.82;;;;;;;23.61;68.06;100134.78;4450402;32;33901;-86
2022/06/05 06:29:41;;;;;;;10.25;7.45;;;;;;;23.34;68.76;100141.87;4454624;32;33079;-86
2022/06/05 06:32:10;;;;;;;10.00;7.10;;;;;;;23.25;68.60;100133.97;4465108;32;33722;-86
2022/06/05 06:34:38;;;;;;;10.45;7.00;;;;;;;23.48;68.13;100127.75;4468637;32;33794;-86
2022/06/05 06:37:05;;;;;;;10.15;6.95;;;;;;;23.81;67.01;100131.19;4452480;32;33771;-86
2022/06/05 06:39:33;;;;;;;10.48;6.90;;;;;;;24.15;66.19;100131.94;4463821;32;34210;-86
2022/06/05 06:42:02;;;;;;;13.25;7.47;;;;;;;23.88;66.34;100132.94;4465810;32;33430;-86
2022/06/05 06:44:30;;;;;;;8.85;6.53;;;;;;;24.01;65.68;100134.66;4463682;32;33387;-86
2022/06/05 06:46:57;;;;;;;9.52;7.15;;;;;;;24.01;65.28;100126.72;4452778;32;34577;-85
2022/06/05 06:49:25;;;;;;;10.70;6.90;;;;;;;24.30;63.38;100133.62;4464662;32;33238;-87
2022/06/05 06:51:52;;;;;;;8.95;7.12;;;;;;;24.12;64.46;100127.50;4460540;32;33957;-85
2022/06/05 06:54:20;;;;;;;11.23;7.18;;;;;;;24.09;64.75;100116.09;4460699;32;33217;-86
2022/06/05 06:56:48;;;;;;;10.40;7.00;;;;;;;23.89;64.86;100113.53;4452137;32;33743;-85
2022/06/05 06:59:15;;;;;;;13.13;7.15;;;;;;;24.08;64.35;100115.19;4463360;32;33893;-87
2022/06/05 07:01:43;;;;;;;10.32;6.82;;;;;;;24.00;65.04;100117.00;4462844;32;33641;-87
2022/06/05 07:04:11;;;;;;;12.13;7.90;;;;;;;24.37;63.27;100121.22;4444264;32;34661;-86
2022/06/05 07:06:38;;;;;;;9.20;6.95;;;;;;;24.73;61.93;100114.78;4465656;32;34216;-87
2022/06/05 07:09:06;;;;;;;10.80;7.60;;;;;;;24.89;61.88;100116.41;4452676;32;33132;-87
2022/06/05 07:11:33;;;;;;;10.10;7.82;;;;;;;24.57;62.25;100113.16;4461447;32;33837;-87
2022/06/05 07:14:01;;;;;;;9.70;7.32;;;;;;;24.83;62.16;100119.13;4458622;32;34021;-86
2022/06/05 07:16:28;;;;;;;9.25;7.18;;;;;;;24.87;61.81;100122.63;4456570;32;34453;-87
2022/06/05 07:18:56;;;;;;;12.73;8.30;;;;;;;25.04;61.59;100114.53;4454147;32;33918;-86
2022/06/05 07:21:25;;;;;;;9.25;7.70;;;;;;;24.98;61.81;100112.81;4461829;32;34336;-86
2022/06/05 07:23:54;;;;;;;10.20;7.93;;;;;;;24.87;62.13;100109.38;4447238;32;33547;-86
2022/06/05 07:26:23;;;;;;;8.93;7.55;;;;;;;25.41;60.37;100106.22;4453805;32;34488;-88
2022/06/05 07:28:51;;;;;;;12.75;8.82;;;;;;;25.00;61.61;100103.06;4450455;32;33421;-86
2022/06/05 07:31:18;;;;;;;9.68;7.50;;;;;;;24.91;61.21;100105.81;4462548;32;33870;-86
2022/06/05 07:33:46;;;;;;;10.65;7.53;;;;;;;25.44;60.37;100108.81;4463324;32;33486;-85
2022/06/05 07:36:20;;;;;;;9.80;7.07;;;;;;;25.43;60.90;100113.25;4460086;32;33982;-85
2022/06/05 07:38:56;;;;;;;11.15;8.00;;;;;;;25.67;59.85;100112.13;4466042;32;33936;-88
2022/06/05 07:41:27;;;;;;;18.05;7.62;;;;;;;25.54;59.38;100107.84;4459580;32;33124;-87
2022/06/05 07:43:59;;;;;;;10.95;7.10;;;;;;;25.66;60.55;100110.34;4450373;32;33902;-87
2022/06/05 07:46:29;;;;;;;10.07;6.93;;;;;;;25.84;58.96;100111.87;4459100;32;34731;-88
2022/06/05 07:49:01;;;;;;;9.77;7.03;;;;;;;25.86;58.33;100111.87;4449754;32;33684;-88
2022/06/05 07:54:27;;;;;;;8.88;6.53;;;;;;;25.68;59.75;100120.94;4462035;32;33520;-88
2022/06/05 07:56:57;;;;;;;8.45;6.85;;;;;;;26.01;58.25;100119.66;4453877;32;33595;-87
2022/06/05 07:59:27;;;;;;;9.45;7.28;;;;;;;26.33;56.84;100128.06;4464049;32;33101;-88
2022/06/05 08:01:58;;;;;;;12.45;7.87;;;;;;;26.55;56.32;100131.28;4438146;32;33549;-88
2022/06/05 08:04:27;;;;;;;9.68;7.20;;;;;;;26.28;57.05;100130.81;4467573;32;34564;-88
2022/06/05 08:06:56;;;;;;;9.18;6.90;;;;;;;26.52;56.60;100128.66;4447221;32;33062;-87
2022/06/05 08:09:24;;;;;;;9.82;7.10;;;;;;;26.21;56.65;100123.81;4454363;32;33112;-86
2022/06/05 08:11:52;;;;;;;9.88;7.03;;;;;;;26.59;55.82;100122.41;4468605;32;33738;-87
2022/06/05 08:14:20;;;;;;;8.18;6.70;;;;;;;26.74;55.25;100129.25;4446484;32;33990;-88
2022/06/05 08:16:48;;;;;;;10.80;6.82;;;;;;;27.11;54.71;100121.53;4452609;32;34424;-87
2022/06/05 08:19:19;;;;;;;8.95;6.80;;;;;;;27.44;53.36;100127.16;4466729;32;34226;-88
2022/06/05 08:21:47;;;;;;;10.85;7.53;;;;;;;27.39;53.25;100118.37;4467678;32;33263;-88
2022/06/05 08:24:15;;;;;;;8.93;6.82;;;;;;;27.21;53.65;100125.75;4449437;32;34002;-88
2022/06/05 08:26:43;;;;;;;7.78;6.95;;;;;;;27.31;54.28;100129.16;4465545;32;34164;-88
2022/06/05 08:29:10;;;;;;;8.60;6.60;;;;;;;27.27;53.72;100127.47;4464910;32;32717;-87
2022/06/05 08:31:38;;;;;;;9.55;6.80;;;;;;;27.01;53.64;100138.53;4466231;32;34279;-88
2022/06/05 08:34:07;;;;;;;10.60;6.62;;;;;;;27.52;52.07;100135.84;4455719;32;34455;-88
2022/06/05 08:36:38;;;;;;;9.48;7.12;;;;;;;27.24;53.22;100135.47;4440829;32;33754;-89
2022/06/05 08:42:18;;;;;;;8.52;6.68;;;;;;;26.96;53.62;100135.09;4466730;32;34269;-87
2022/06/05 08:44:59;;;;;;;9.98;7.57;;;;;;;26.80;54.21;100135.34;4466099;32;32634;-86
2022/06/05 08:47:34;;;;;;;8.38;6.87;;;;;;;26.95;53.55;100136.00;4455251;32;33698;-88
2022/06/05 08:50:42;;;;;;;8.90;7.28;;;;;;;27.09;53.64;100135.75;4454475;32;33075;-88
2022/06/05 08:53:36;;;;;;;10.15;7.05;;;;;;;26.76;55.44;100144.25;4462491;32;34717;-89
2022/06/05 08:56:06;;;;;;;9.15;7.28;;;;;;;26.81;54.69;100136.22;4447393;32;33812;-87
2022/06/05 08:58:47;;;;;;;8.77;7.07;;;;;;;27.05;53.98;100130.47;4450589;32;33371;-87
2022/06/05 09:01:22;;;;;;;9.90;7.10;;;;;;;27.31;53.68;100125.63;4464494;32;33416;-87
2022/06/05 09:04:13;;;;;;;7.95;6.60;;;;;;;27.57;52.70;100122.47;4449937;32;34360;-86
2022/06/05 09:06:45;;;;;;;8.75;6.87;;;;;;;27.89;51.90;100116.50;4450750;32;33770;-86
2022/06/05 09:09:24;;;;;;;10.00;6.72;;;;;;;27.96;51.76;100112.78;4438243;32;32631;-88
2022/06/05 09:12:03;;;;;;;8.55;7.12;;;;;;;28.07;51.36;100115.25;4451322;32;33498;-88
2022/06/05 09:14:36;;;;;;;9.50;5.87;;;;;;;28.20;51.51;100114.06;4448089;32;33769;-87
2022/06/05 09:17:25;;;;;;;8.43;6.20;;;;;;;28.38;51.33;100114.53;4460450;32;33943;-89
2022/06/05 09:19:54;;;;;;;9.77;6.00;;;;;;;28.63;49.79;100117.53;4442748;32;33870;-88
2022/06/05 09:22:33;;;;;;;11.75;6.80;;;;;;;28.78;50.69;100111.81;4433125;32;32932;-89
2022/06/05 09:25:25;;;;;;;9.45;6.75;;;;;;;28.54;49.82;100118.59;4441378;32;33508;-88
2022/06/05 09:28:35;;;;;;;46.40;31.65;;;;;;;28.77;48.99;100120.72;4451800;32;34002;-92
2022/06/05 09:31:39;;;;;;;10.57;7.60;;;;;;;28.83;49.64;100115.22;4448142;32;35300;-89
2022/06/05 09:34:22;;;;;;;10.63;7.77;;;;;;;28.87;48.87;100115.16;4438385;32;33937;-91
2022/06/05 09:37:16;;;;;;;10.23;7.25;;;;;;;28.55;49.15;100119.47;4434353;32;33875;-88
2022/06/05 09:39:48;;;;;;;8.20;7.00;;;;;;;28.60;49.43;100125.59;4446634;32;33954;-87
2022/06/05 09:42:32;;;;;;;9.18;7.07;;;;;;;28.11;50.36;100124.03;4429748;32;33922;-88
2022/06/05 09:45:18;;;;;;;9.65;7.47;;;;;;;28.04;50.67;100121.47;4441949;32;31649;-89
2022/06/05 09:47:57;;;;;;;9.80;7.12;;;;;;;28.33;50.09;100130.59;4430914;32;32465;-87
2022/06/05 09:50:27;;;;;;;9.25;7.30;;;;;;;28.69;48.70;100137.81;4457559;32;34688;-87
2022/06/05 09:52:56;;;;;;;9.68;7.30;;;;;;;28.97;48.42;100149.53;4453106;32;36513;-86
2022/06/05 09:55:50;;;;;;;9.50;7.37;;;;;;;29.07;47.51;100144.84;4434918;32;32519;-86
2022/06/05 09:58:31;;;;;;;12.93;8.77;;;;;;;28.49;48.34;100132.91;4447024;32;34480;-87
2022/06/05 10:01:03;;;;;;;10.77;8.18;;;;;;;28.43;48.95;100147.25;4442720;32;33849;-87
2022/06/05 10:03:37;;;;;;;11.20;8.32;;;;;;;27.77;49.70;100148.66;4429589;32;33761;-86
2022/06/05 10:06:22;;;;;;;10.73;7.70;;;;;;;28.21;48.66;100142.44;4448329;32;33270;-86
2022/06/05 10:08:57;;;;;;;9.35;7.68;;;;;;;28.13;49.34;100136.41;4452544;32;33668;-86
2022/06/05 10:11:37;;;;;;;10.38;8.57;;;;;;;28.38;48.31;100144.72;4446559;32;33467;-86
2022/06/05 10:14:24;;;;;;;8.98;7.95;;;;;;;28.49;48.40;100140.91;4434034;32;34397;-85
2022/06/05 10:17:07;;;;;;;8.60;7.75;;;;;;;28.36;48.69;100145.66;4449216;32;34011;-87
2022/06/05 10:19:52;;;;;;;9.63;8.30;;;;;;;28.29;48.85;100147.56;4443519;32;32617;-87
2022/06/05 10:22:44;;;;;;;9.73;7.97;;;;;;;27.71;49.64;100151.47;4438635;32;34665;-87
2022/06/05 10:25:30;;;;;;;12.05;7.80;;;;;;;27.82;48.96;100141.47;4444918;32;33754;-88
2022/06/05 10:28:14;;;;;;;10.27;7.68;;;;;;;27.85;48.99;100136.06;4446773;32;34295;-86
2022/06/05 10:31:06;;;;;;;9.15;7.00;;;;;;;28.16;47.11;100133.69;4446958;32;33876;-85
2022/06/05 10:33:43;;;;;;;7.85;6.40;;;;;;;27.41;48.67;100132.50;4447501;32;34548;-86
2022/06/05 10:36:23;;;;;;;9.60;6.80;;;;;;;27.85;47.62;100128.09;4453357;32;33994;-85
2022/06/05 10:39:09;;;;;;;7.75;6.18;;;;;;;27.93;46.87;100112.88;4456765;32;33742;-86
2022/06/05 10:41:37;;;;;;;8.35;5.55;;;;;;;28.21;45.86;100114.91;4451673;32;34075;-88
2022/06/05 10:44:25;;;;;;;8.02;5.78;;;;;;;27.93;46.41;100110.22;4442468;32;32305;-89
2022/06/05 10:47:16;;;;;;;7.15;5.72;;;;;;;28.32;45.32;100112.88;4450912;32;33918;-88
2022/06/05 10:49:49;;;;;;;14.45;6.43;;;;;;;28.62;44.84;100110.44;4441890;32;33785;-87
2022/06/05 10:52:26;;;;;;;6.22;5.40;;;;;;;28.75;43.65;100111.00;4428232;32;33088;-88
2022/06/05 10:55:21;;;;;;;8.45;5.10;;;;;;;29.28;43.53;100105.19;4457246;32;33479;-88
2022/06/05 10:58:04;;;;;;;6.68;5.00;;;;;;;29.42;42.37;100097.72;4437626;32;32340;-88
2022/06/05 11:00:56;;;;;;;;;;;;;;;29.75;40.53;100090.53;4444491;32;32914;-86
2022/06/05 11:03:28;;;;;;;6.07;4.72;;;;;;;29.84;41.05;100088.50;4445814;32;34407;-87
2022/06/05 11:06:15;;;;;;;5.47;4.70;;;;;;;29.97;40.51;100080.06;4437550;32;32259;-88
2022/06/05 11:08:57;;;;;;;6.50;4.70;;;;;;;30.25;39.28;100084.56;4448699;32;33421;-87
2022/06/05 11:14:34;;;;;;;7.22;4.60;;;;;;;30.50;38.79;100073.09;4446544;32;34159;-87
2022/06/05 11:17:19;;;;;;;7.47;4.60;;;;;;;30.35;37.53;100080.69;4448851;32;33858;-87
2022/06/05 11:19:57;;;;;;;5.78;4.70;;;;;;;30.58;37.78;100087.97;4441465;32;32590;-87
2022/06/05 11:22:26;;;;;;;5.97;4.53;;;;;;;30.74;37.04;100088.31;4442575;32;33560;-88
2022/06/05 11:24:57;;;;;;;6.70;4.40;;;;;;;30.97;36.42;100086.69;4442319;32;33703;-90
2022/06/05 11:27:33;;;;;;;6.40;4.28;;;;;;;31.18;36.83;100087.75;4452328;32;34694;-89
2022/06/05 11:30:20;;;;;;;6.30;4.20;;;;;;;31.07;36.45;100084.56;4439140;32;33745;-91
2022/06/05 11:32:56;;;;;;;8.77;4.30;;;;;;;31.27;35.53;100081.16;4446910;32;32984;-87
2022/06/05 11:36:03;;;;;;;7.60;4.20;;;;;;;31.26;35.94;100079.44;4432627;32;34079;-89
2022/06/05 11:38:47;;;;;;;5.20;4.12;;;;;;;31.32;35.54;100084.56;4425998;32;33051;-86
2022/06/05 11:41:40;;;;;;;6.30;4.30;;;;;;;30.96;37.63;100082.25;4436716;32;34873;-86
2022/06/05 11:44:34;;;;;;;8.80;4.40;;;;;;;30.82;36.25;100081.84;4449993;32;33417;-91
2022/06/05 11:48:02;;;;;;;5.18;4.18;;;;;;;30.91;36.69;100076.22;4459442;32;34684;-88
2022/06/05 11:50:53;;;;;;;5.72;4.72;;;;;;;30.90;36.48;100078.00;4383979;32;34270;-87
2022/06/05 11:53:26;;;;;;;5.75;4.50;;;;;;;30.93;36.95;100061.00;4408397;32;33969;-87
2022/06/05 11:56:46;;;;;;;7.93;4.85;;;;;;;31.12;36.46;100067.44;4417162;32;32303;-88
2022/06/05 11:59:45;;;;;;;9.48;4.50;;;;;;;31.77;35.14;100054.34;4434351;32;33249;-88
2022/06/05 12:02:31;;;;;;;7.62;4.72;;;;;;;31.15;36.32;100040.53;4422732;32;33018;-87
2022/06/05 12:05:37;;;;;;;6.50;4.40;;;;;;;31.15;35.61;100048.56;4423649;32;33084;-89
2022/06/05 12:08:12;;;;;;;6.43;4.70;;;;;;;31.41;35.29;100041.41;4433652;32;33738;-89
2022/06/05 12:10:54;;;;;;;8.00;4.95;;;;;;;31.30;35.97;100039.12;4424822;32;33971;-87
2022/06/05 12:13:40;;;;;;;6.18;4.47;;;;;;;31.03;35.81;100035.66;4435633;32;34440;-89